sensor_id;sensor_type;location;lat;lon;timestamp;P1;durP1;ratioP1;P2;durP2;ratioP2
55134;SDS011;41031;44.750;11.308;2023-04-08T00:00:46;9.80;;;8.77;;
55134;SDS011;41031;44.750;11.308;2023-04-08T00:03:13;11.23;;;8.07;;
55134;SDS011;41031;44.750;11.308;2023-04-08T00:05:41;11.53;;;9.20;;
55134;SDS011;41031;44.750;11.308;2023-04-08T00:08:08;14.37;;;8.20;;
55134;SDS011;41031;44.750;11.308;2023-04-08T00:10:35;10.03;;;8.70;;
55134;SDS011;41031;44.750;11.308;2023-04-08T00:13:02;9.80;;;8.80;;
55134;SDS011;41031;44.750;11.308;2023-04-08T00:15:29;10.73;;;8.83;;
55134;SDS011;41031;44.750;11.308;2023-04-08T00:17:56;13.27;;;8.83;;
55134;SDS011;41031;44.750;11.308;2023-04-08T00:20:23;11.33;;;8.90;;
55134;SDS011;41031;44.750;11.308;2023-04-08T00:22:50;12.00;;;9.00;;
55134;SDS011;41031;44.750;11.308;2023-04-08T00:25:17;11.43;;;9.33;;
55134;SDS011;41031;44.750;11.308;2023-04-08T00:27:44;12.17;;;9.63;;
55134;SDS011;41031;44.750;11.308;2023-04-08T00:30:11;13.40;;;9.57;;
55134;SDS011;41031;44.750;11.308;2023-04-08T00:32:38;14.33;;;10.43;;
55134;SDS011;41031;44.750;11.308;2023-04-08T00:35:05;12.53;;;9.87;;
55134;SDS011;41031;44.750;11.308;2023-04-08T00:37:33;16.93;;;9.67;;
55134;SDS011;41031;44.750;11.308;2023-04-08T00:40:00;14.60;;;9.93;;
55134;SDS011;41031;44.750;11.308;2023-04-08T00:42:27;11.30;;;9.70;;
55134;SDS011;41031;44.750;11.308;2023-04-08T00:44:56;19.60;;;10.27;;
55134;SDS011;41031;44.750;11.308;2023-04-08T00:47:23;11.20;;;9.77;;
55134;SDS011;41031;44.750;11.308;2023-04-08T00:49:51;13.47;;;9.77;;
55134;SDS011;41031;44.750;11.308;2023-04-08T00:52:18;13.17;;;10.00;;
55134;SDS011;41031;44.750;11.308;2023-04-08T00:54:45;13.10;;;10.83;;
55134;SDS011;41031;44.750;11.308;2023-04-08T00:57:12;12.37;;;9.93;;
55134;SDS011;41031;44.750;11.308;2023-04-08T00:59:39;17.63;;;10.87;;
55134;SDS011;41031;44.750;11.308;2023-04-08T01:02:15;15.37;;;10.10;;
55134;SDS011;41031;44.750;11.308;2023-04-08T01:07:34;11.90;;;10.37;;
55134;SDS011;41031;44.750;11.308;2023-04-08T01:10:08;14.57;;;9.77;;
55134;SDS011;41031;44.750;11.308;2023-04-08T01:12:39;14.93;;;10.23;;
55134;SDS011;41031;44.750;11.308;2023-04-08T01:15:11;11.50;;;10.30;;
55134;SDS011;41031;44.750;11.308;2023-04-08T01:17:38;15.17;;;10.23;;
55134;SDS011;41031;44.750;11.308;2023-04-08T01:20:07;13.37;;;10.90;;
55134;SDS011;41031;44.750;11.308;2023-04-08T01:22:40;12.93;;;11.27;;
55134;SDS011;41031;44.750;11.308;2023-04-08T01:25:23;12.63;;;10.43;;
55134;SDS011;41031;44.750;11.308;2023-04-08T01:27:55;14.30;;;10.23;;
55134;SDS011;41031;44.750;11.308;2023-04-08T01:30:24;14.00;;;10.73;;
55134;SDS011;41031;44.750;11.308;2023-04-08T01:32:53;14.90;;;10.83;;
55134;SDS011;41031;44.750;11.308;2023-04-08T01:35:21;15.30;;;11.33;;
55134;SDS011;41031;44.750;11.308;2023-04-08T01:37:49;15.20;;;10.83;;
55134;SDS011;41031;44.750;11.308;2023-04-08T01:40:17;12.47;;;10.67;;
55134;SDS011;41031;44.750;11.308;2023-04-08T01:42:48;13.27;;;11.50;;
55134;SDS011;41031;44.750;11.308;2023-04-08T01:45:18;12.80;;;11.50;;
55134;SDS011;41031;44.750;11.308;2023-04-08T01:47:45;16.43;;;11.77;;
55134;SDS011;41031;44.750;11.308;2023-04-08T01:50:15;14.70;;;11.57;;
55134;SDS011;41031;44.750;11.308;2023-04-08T01:52:43;13.93;;;11.10;;
55134;SDS011;41031;44.750;11.308;2023-04-08T01:55:12;15.17;;;11.60;;
55134;SDS011;41031;44.750;11.308;2023-04-08T01:57:40;15.13;;;11.73;;
55134;SDS011;41031;44.750;11.308;2023-04-08T02:00:10;16.70;;;11.90;;
55134;SDS011;41031;44.750;11.308;2023-04-08T02:02:49;19.03;;;11.97;;
55134;SDS011;41031;44.750;11.308;2023-04-08T02:05:18;14.43;;;12.20;;
55134;SDS011;41031;44.750;11.308;2023-04-08T02:07:48;14.33;;;11.90;;
55134;SDS011;41031;44.750;11.308;2023-04-08T02:10:15;17.70;;;12.50;;
55134;SDS011;41031;44.750;11.308;2023-04-08T02:12:42;13.87;;;11.57;;
55134;SDS011;41031;44.750;11.308;2023-04-08T02:15:10;18.20;;;12.87;;
55134;SDS011;41031;44.750;11.308;2023-04-08T02:20:10;16.57;;;11.50;;
55134;SDS011;41031;44.750;11.308;2023-04-08T02:25:42;25.13;;;13.43;;
55134;SDS011;41031;44.750;11.308;2023-04-08T02:28:12;17.27;;;12.90;;
55134;SDS011;41031;44.750;11.308;2023-04-08T02:30:41;14.23;;;12.73;;
55134;SDS011;41031;44.750;11.308;2023-04-08T02:33:10;15.10;;;11.93;;
55134;SDS011;41031;44.750;11.308;2023-04-08T02:35:39;16.47;;;12.27;;
55134;SDS011;41031;44.750;11.308;2023-04-08T02:38:07;14.03;;;11.77;;
55134;SDS011;41031;44.750;11.308;2023-04-08T02:40:36;15.97;;;12.53;;
55134;SDS011;41031;44.750;11.308;2023-04-08T02:43:03;17.17;;;12.20;;
55134;SDS011;41031;44.750;11.308;2023-04-08T02:45:30;15.73;;;12.10;;
55134;SDS011;41031;44.750;11.308;2023-04-08T02:48:01;14.87;;;12.97;;
55134;SDS011;41031;44.750;11.308;2023-04-08T02:50:28;15.70;;;13.17;;
55134;SDS011;41031;44.750;11.308;2023-04-08T02:52:55;14.97;;;11.77;;
55134;SDS011;41031;44.750;11.308;2023-04-08T02:55:22;19.83;;;12.90;;
55134;SDS011;41031;44.750;11.308;2023-04-08T02:57:49;14.00;;;12.50;;
55134;SDS011;41031;44.750;11.308;2023-04-08T03:00:16;15.97;;;12.20;;
55134;SDS011;41031;44.750;11.308;2023-04-08T03:02:43;15.97;;;13.17;;
55134;SDS011;41031;44.750;11.308;2023-04-08T03:05:10;18.20;;;12.83;;
55134;SDS011;41031;44.750;11.308;2023-04-08T03:07:37;17.53;;;13.10;;
55134;SDS011;41031;44.750;11.308;2023-04-08T03:10:05;15.60;;;12.47;;
55134;SDS011;41031;44.750;11.308;2023-04-08T03:12:32;20.47;;;13.00;;
55134;SDS011;41031;44.750;11.308;2023-04-08T03:14:59;17.03;;;12.93;;
55134;SDS011;41031;44.750;11.308;2023-04-08T03:17:27;16.83;;;13.63;;
55134;SDS011;41031;44.750;11.308;2023-04-08T03:19:54;14.70;;;13.07;;
55134;SDS011;41031;44.750;11.308;2023-04-08T03:22:21;16.03;;;12.53;;
55134;SDS011;41031;44.750;11.308;2023-04-08T03:24:49;15.97;;;13.67;;
55134;SDS011;41031;44.750;11.308;2023-04-08T03:27:16;15.67;;;11.70;;
55134;SDS011;41031;44.750;11.308;2023-04-08T03:29:43;19.00;;;14.17;;
55134;SDS011;41031;44.750;11.308;2023-04-08T03:32:12;18.63;;;13.33;;
55134;SDS011;41031;44.750;11.308;2023-04-08T03:34:39;18.40;;;14.43;;
55134;SDS011;41031;44.750;11.308;2023-04-08T03:37:06;15.83;;;12.97;;
55134;SDS011;41031;44.750;11.308;2023-04-08T03:39:33;20.70;;;14.37;;
55134;SDS011;41031;44.750;11.308;2023-04-08T03:42:00;23.23;;;14.23;;
55134;SDS011;41031;44.750;11.308;2023-04-08T03:44:28;16.27;;;13.20;;
55134;SDS011;41031;44.750;11.308;2023-04-08T03:46:55;18.40;;;13.67;;
55134;SDS011;41031;44.750;11.308;2023-04-08T03:49:22;24.00;;;14.10;;
55134;SDS011;41031;44.750;11.308;2023-04-08T03:51:49;15.97;;;12.47;;
55134;SDS011;41031;44.750;11.308;2023-04-08T03:54:16;21.17;;;13.33;;
55134;SDS011;41031;44.750;11.308;2023-04-08T03:56:43;17.00;;;12.73;;
55134;SDS011;41031;44.750;11.308;2023-04-08T03:59:10;17.43;;;13.40;;
55134;SDS011;41031;44.750;11.308;2023-04-08T04:01:37;16.00;;;14.00;;
55134;SDS011;41031;44.750;11.308;2023-04-08T04:04:07;16.83;;;13.30;;
55134;SDS011;41031;44.750;11.308;2023-04-08T04:06:34;16.27;;;13.40;;
55134;SDS011;41031;44.750;11.308;2023-04-08T04:09:01;17.33;;;13.70;;
55134;SDS011;41031;44.750;11.308;2023-04-08T04:11:28;17.67;;;13.70;;
55134;SDS011;41031;44.750;11.308;2023-04-08T04:13:55;18.43;;;13.80;;
55134;SDS011;41031;44.750;11.308;2023-04-08T04:16:22;19.67;;;15.33;;
55134;SDS011;41031;44.750;11.308;2023-04-08T04:18:50;18.77;;;13.60;;
55134;SDS011;41031;44.750;11.308;2023-04-08T04:21:19;21.20;;;14.20;;
55134;SDS011;41031;44.750;11.308;2023-04-08T04:23:46;20.37;;;14.30;;
55134;SDS011;41031;44.750;11.308;2023-04-08T04:26:13;16.83;;;14.87;;
55134;SDS011;41031;44.750;11.308;2023-04-08T04:28:40;21.47;;;14.27;;
55134;SDS011;41031;44.750;11.308;2023-04-08T04:31:07;21.07;;;15.10;;
55134;SDS011;41031;44.750;11.308;2023-04-08T04:33:43;20.30;;;15.90;;
55134;SDS011;41031;44.750;11.308;2023-04-08T04:36:10;24.77;;;16.63;;
55134;SDS011;41031;44.750;11.308;2023-04-08T04:38:37;21.60;;;15.67;;
55134;SDS011;41031;44.750;11.308;2023-04-08T04:41:04;22.53;;;15.73;;
55134;SDS011;41031;44.750;11.308;2023-04-08T04:43:31;22.97;;;15.47;;
55134;SDS011;41031;44.750;11.308;2023-04-08T04:45:58;20.93;;;14.93;;
55134;SDS011;41031;44.750;11.308;2023-04-08T04:48:26;19.87;;;14.90;;
55134;SDS011;41031;44.750;11.308;2023-04-08T04:50:56;28.33;;;17.20;;
55134;SDS011;41031;44.750;11.308;2023-04-08T04:53:24;18.43;;;14.13;;
55134;SDS011;41031;44.750;11.308;2023-04-08T04:55:51;24.27;;;16.77;;
55134;SDS011;41031;44.750;11.308;2023-04-08T04:58:18;22.17;;;17.13;;
55134;SDS011;41031;44.750;11.308;2023-04-08T05:00:45;26.80;;;17.43;;
55134;SDS011;41031;44.750;11.308;2023-04-08T05:03:12;22.73;;;16.03;;
55134;SDS011;41031;44.750;11.308;2023-04-08T05:05:39;26.77;;;18.27;;
55134;SDS011;41031;44.750;11.308;2023-04-08T05:08:06;24.50;;;17.17;;
55134;SDS011;41031;44.750;11.308;2023-04-08T05:10:33;25.33;;;17.23;;
55134;SDS011;41031;44.750;11.308;2023-04-08T05:13:00;25.00;;;17.77;;
55134;SDS011;41031;44.750;11.308;2023-04-08T05:15:27;27.90;;;18.40;;
55134;SDS011;41031;44.750;11.308;2023-04-08T05:17:54;26.60;;;19.00;;
55134;SDS011;41031;44.750;11.308;2023-04-08T05:20:21;24.90;;;18.47;;
55134;SDS011;41031;44.750;11.308;2023-04-08T05:22:48;24.53;;;18.40;;
55134;SDS011;41031;44.750;11.308;2023-04-08T05:25:15;25.70;;;19.07;;
55134;SDS011;41031;44.750;11.308;2023-04-08T05:27:42;27.13;;;19.33;;
55134;SDS011;41031;44.750;11.308;2023-04-08T05:30:09;27.37;;;18.80;;
55134;SDS011;41031;44.750;11.308;2023-04-08T05:32:37;30.67;;;21.63;;
55134;SDS011;41031;44.750;11.308;2023-04-08T05:35:05;29.70;;;21.17;;
55134;SDS011;41031;44.750;11.308;2023-04-08T05:37:32;29.17;;;21.63;;
55134;SDS011;41031;44.750;11.308;2023-04-08T05:39:59;30.33;;;20.87;;
55134;SDS011;41031;44.750;11.308;2023-04-08T05:42:26;31.77;;;21.83;;
55134;SDS011;41031;44.750;11.308;2023-04-08T05:44:53;29.20;;;21.17;;
55134;SDS011;41031;44.750;11.308;2023-04-08T05:47:20;32.73;;;22.23;;
55134;SDS011;41031;44.750;11.308;2023-04-08T05:49:47;35.27;;;24.30;;
55134;SDS011;41031;44.750;11.308;2023-04-08T05:52:16;29.83;;;23.17;;
55134;SDS011;41031;44.750;11.308;2023-04-08T05:54:43;34.73;;;22.80;;
55134;SDS011;41031;44.750;11.308;2023-04-08T05:57:11;33.57;;;23.73;;
55134;SDS011;41031;44.750;11.308;2023-04-08T05:59:38;36.50;;;24.37;;
55134;SDS011;41031;44.750;11.308;2023-04-08T06:02:05;34.13;;;26.10;;
55134;SDS011;41031;44.750;11.308;2023-04-08T06:04:32;29.37;;;22.93;;
55134;SDS011;41031;44.750;11.308;2023-04-08T06:06:59;33.73;;;23.90;;
55134;SDS011;41031;44.750;11.308;2023-04-08T06:09:28;30.23;;;23.63;;
55134;SDS011;41031;44.750;11.308;2023-04-08T06:11:55;33.13;;;24.23;;
55134;SDS011;41031;44.750;11.308;2023-04-08T06:14:22;32.20;;;22.57;;
55134;SDS011;41031;44.750;11.308;2023-04-08T06:16:50;33.63;;;24.40;;
55134;SDS011;41031;44.750;11.308;2023-04-08T06:19:18;31.90;;;23.03;;
55134;SDS011;41031;44.750;11.308;2023-04-08T06:21:45;27.57;;;21.07;;
55134;SDS011;41031;44.750;11.308;2023-04-08T06:24:12;30.03;;;22.43;;
55134;SDS011;41031;44.750;11.308;2023-04-08T06:26:39;32.43;;;21.80;;
55134;SDS011;41031;44.750;11.308;2023-04-08T06:29:06;28.93;;;22.00;;
55134;SDS011;41031;44.750;11.308;2023-04-08T06:31:34;28.67;;;21.40;;
55134;SDS011;41031;44.750;11.308;2023-04-08T06:34:01;26.03;;;20.33;;
55134;SDS011;41031;44.750;11.308;2023-04-08T06:36:27;28.83;;;21.73;;
55134;SDS011;41031;44.750;11.308;2023-04-08T06:38:54;28.43;;;21.27;;
55134;SDS011;41031;44.750;11.308;2023-04-08T06:41:21;26.80;;;21.10;;
55134;SDS011;41031;44.750;11.308;2023-04-08T06:43:48;26.43;;;20.27;;
55134;SDS011;41031;44.750;11.308;2023-04-08T06:46:16;27.07;;;20.40;;
55134;SDS011;41031;44.750;11.308;2023-04-08T06:48:43;30.77;;;20.50;;
55134;SDS011;41031;44.750;11.308;2023-04-08T06:51:10;27.73;;;19.77;;
55134;SDS011;41031;44.750;11.308;2023-04-08T06:53:36;28.60;;;19.93;;
55134;SDS011;41031;44.750;11.308;2023-04-08T06:56:04;23.57;;;18.70;;
55134;SDS011;41031;44.750;11.308;2023-04-08T06:58:32;27.30;;;18.37;;
55134;SDS011;41031;44.750;11.308;2023-04-08T07:00:59;20.43;;;17.47;;
55134;SDS011;41031;44.750;11.308;2023-04-08T07:03:28;22.97;;;17.97;;
55134;SDS011;41031;44.750;11.308;2023-04-08T07:05:55;22.70;;;17.47;;
55134;SDS011;41031;44.750;11.308;2023-04-08T07:08:22;21.77;;;17.87;;
55134;SDS011;41031;44.750;11.308;2023-04-08T07:10:50;20.63;;;17.93;;
55134;SDS011;41031;44.750;11.308;2023-04-08T07:13:18;21.77;;;17.57;;
55134;SDS011;41031;44.750;11.308;2023-04-08T07:15:45;21.23;;;18.63;;
55134;SDS011;41031;44.750;11.308;2023-04-08T07:18:12;22.63;;;18.93;;
55134;SDS011;41031;44.750;11.308;2023-04-08T07:20:39;24.83;;;19.03;;
55134;SDS011;41031;44.750;11.308;2023-04-08T07:23:07;19.43;;;15.93;;
55134;SDS011;41031;44.750;11.308;2023-04-08T07:25:34;24.70;;;18.53;;
55134;SDS011;41031;44.750;11.308;2023-04-08T07:28:01;25.70;;;19.07;;
55134;SDS011;41031;44.750;11.308;2023-04-08T07:30:29;24.03;;;18.00;;
55134;SDS011;41031;44.750;11.308;2023-04-08T07:32:55;21.33;;;16.90;;
55134;SDS011;41031;44.750;11.308;2023-04-08T07:35:26;20.13;;;17.03;;
55134;SDS011;41031;44.750;11.308;2023-04-08T07:37:53;21.93;;;17.37;;
55134;SDS011;41031;44.750;11.308;2023-04-08T07:40:20;21.10;;;17.87;;
55134;SDS011;41031;44.750;11.308;2023-04-08T07:42:47;22.90;;;17.73;;
55134;SDS011;41031;44.750;11.308;2023-04-08T07:45:15;20.80;;;17.33;;
55134;SDS011;41031;44.750;11.308;2023-04-08T07:47:42;20.67;;;18.47;;
55134;SDS011;41031;44.750;11.308;2023-04-08T07:50:10;21.07;;;17.33;;
55134;SDS011;41031;44.750;11.308;2023-04-08T07:52:37;20.77;;;17.97;;
55134;SDS011;41031;44.750;11.308;2023-04-08T07:55:04;19.33;;;17.33;;
55134;SDS011;41031;44.750;11.308;2023-04-08T07:57:31;28.33;;;17.03;;
55134;SDS011;41031;44.750;11.308;2023-04-08T07:59:59;25.40;;;18.03;;
55134;SDS011;41031;44.750;11.308;2023-04-08T08:02:25;25.53;;;18.47;;
55134;SDS011;41031;44.750;11.308;2023-04-08T08:04:53;21.93;;;17.47;;
55134;SDS011;41031;44.750;11.308;2023-04-08T08:07:20;21.73;;;17.83;;
55134;SDS011;41031;44.750;11.308;2023-04-08T08:09:46;21.40;;;17.50;;
55134;SDS011;41031;44.750;11.308;2023-04-08T08:12:14;25.27;;;18.10;;
55134;SDS011;41031;44.750;11.308;2023-04-08T08:14:41;21.73;;;17.33;;
55134;SDS011;41031;44.750;11.308;2023-04-08T08:17:08;20.77;;;15.70;;
55134;SDS011;41031;44.750;11.308;2023-04-08T08:19:35;20.37;;;17.07;;
55134;SDS011;41031;44.750;11.308;2023-04-08T08:22:02;19.20;;;17.23;;
55134;SDS011;41031;44.750;11.308;2023-04-08T08:24:29;18.10;;;14.83;;
55134;SDS011;41031;44.750;11.308;2023-04-08T08:26:56;20.30;;;16.13;;
55134;SDS011;41031;44.750;11.308;2023-04-08T08:29:23;18.23;;;16.27;;
55134;SDS011;41031;44.750;11.308;2023-04-08T08:31:50;18.17;;;15.60;;
55134;SDS011;41031;44.750;11.308;2023-04-08T08:34:17;16.43;;;14.10;;
55134;SDS011;41031;44.750;11.308;2023-04-08T08:36:44;18.73;;;15.17;;
55134;SDS011;41031;44.750;11.308;2023-04-08T08:39:11;20.87;;;15.63;;
55134;SDS011;41031;44.750;11.308;2023-04-08T08:41:38;19.93;;;15.50;;
55134;SDS011;41031;44.750;11.308;2023-04-08T08:44:06;18.40;;;15.83;;
55134;SDS011;41031;44.750;11.308;2023-04-08T08:46:34;20.33;;;15.70;;
55134;SDS011;41031;44.750;11.308;2023-04-08T08:49:01;16.77;;;14.97;;
55134;SDS011;41031;44.750;11.308;2023-04-08T08:51:28;16.43;;;14.70;;
55134;SDS011;41031;44.750;11.308;2023-04-08T08:54:00;19.00;;;14.80;;
55134;SDS011;41031;44.750;11.308;2023-04-08T08:56:28;14.90;;;11.13;;
55134;SDS011;41031;44.750;11.308;2023-04-08T08:58:55;13.07;;;10.47;;
55134;SDS011;41031;44.750;11.308;2023-04-08T09:01:41;15.63;;;14.00;;
55134;SDS011;41031;44.750;11.308;2023-04-08T09:04:15;19.67;;;14.97;;
55134;SDS011;41031;44.750;11.308;2023-04-08T09:06:46;10.13;;;9.13;;
55134;SDS011;41031;44.750;11.308;2023-04-08T09:09:16;14.00;;;10.63;;
55134;SDS011;41031;44.750;11.308;2023-04-08T09:11:44;13.53;;;11.47;;
55134;SDS011;41031;44.750;11.308;2023-04-08T09:16:49;15.67;;;13.37;;
55134;SDS011;41031;44.750;11.308;2023-04-08T09:19:18;17.03;;;13.10;;
55134;SDS011;41031;44.750;11.308;2023-04-08T09:21:45;16.33;;;12.20;;
55134;SDS011;41031;44.750;11.308;2023-04-08T09:24:29;15.30;;;12.43;;
55134;SDS011;41031;44.750;11.308;2023-04-08T09:26:57;15.70;;;12.50;;
55134;SDS011;41031;44.750;11.308;2023-04-08T09:29:24;16.10;;;13.67;;
55134;SDS011;41031;44.750;11.308;2023-04-08T09:31:59;15.20;;;12.50;;
55134;SDS011;41031;44.750;11.308;2023-04-08T09:34:27;11.03;;;8.23;;
55134;SDS011;41031;44.750;11.308;2023-04-08T09:36:55;12.33;;;10.37;;
55134;SDS011;41031;44.750;11.308;2023-04-08T09:39:22;14.63;;;10.90;;
55134;SDS011;41031;44.750;11.308;2023-04-08T09:41:50;15.73;;;11.20;;
55134;SDS011;41031;44.750;11.308;2023-04-08T09:44:18;13.47;;;10.60;;
55134;SDS011;41031;44.750;11.308;2023-04-08T09:55:00;15.07;;;10.60;;
55134;SDS011;41031;44.750;11.308;2023-04-08T10:00:29;13.10;;;9.73;;
55134;SDS011;41031;44.750;11.308;2023-04-08T10:03:21;11.90;;;9.90;;
55134;SDS011;41031;44.750;11.308;2023-04-08T10:05:56;9.93;;;8.93;;
55134;SDS011;41031;44.750;11.308;2023-04-08T10:08:26;7.63;;;6.60;;
55134;SDS011;41031;44.750;11.308;2023-04-08T10:10:54;7.33;;;6.27;;
55134;SDS011;41031;44.750;11.308;2023-04-08T10:13:22;8.63;;;6.10;;
55134;SDS011;41031;44.750;11.308;2023-04-08T10:15:50;6.50;;;5.23;;
55134;SDS011;41031;44.750;11.308;2023-04-08T10:18:37;8.43;;;6.13;;
55134;SDS011;41031;44.750;11.308;2023-04-08T10:21:04;10.13;;;7.40;;
55134;SDS011;41031;44.750;11.308;2023-04-08T10:23:57;7.33;;;6.63;;
55134;SDS011;41031;44.750;11.308;2023-04-08T10:26:29;10.73;;;6.73;;
55134;SDS011;41031;44.750;11.308;2023-04-08T10:31:44;10.03;;;7.27;;
55134;SDS011;41031;44.750;11.308;2023-04-08T10:34:19;8.17;;;7.13;;
55134;SDS011;41031;44.750;11.308;2023-04-08T10:36:48;7.83;;;6.97;;
55134;SDS011;41031;44.750;11.308;2023-04-08T10:39:15;13.37;;;8.93;;
55134;SDS011;41031;44.750;11.308;2023-04-08T10:41:42;9.47;;;7.17;;
55134;SDS011;41031;44.750;11.308;2023-04-08T10:44:17;12.77;;;9.03;;
55134;SDS011;41031;44.750;11.308;2023-04-08T10:46:46;12.40;;;9.50;;
55134;SDS011;41031;44.750;11.308;2023-04-08T10:49:14;10.47;;;9.40;;
55134;SDS011;41031;44.750;11.308;2023-04-08T10:51:42;11.77;;;8.57;;
55134;SDS011;41031;44.750;11.308;2023-04-08T10:54:14;9.40;;;8.50;;
55134;SDS011;41031;44.750;11.308;2023-04-08T10:56:46;8.23;;;7.40;;
55134;SDS011;41031;44.750;11.308;2023-04-08T10:59:30;9.27;;;7.30;;
55134;SDS011;41031;44.750;11.308;2023-04-08T11:01:58;8.50;;;6.30;;
55134;SDS011;41031;44.750;11.308;2023-04-08T11:04:26;9.73;;;6.60;;
55134;SDS011;41031;44.750;11.308;2023-04-08T11:06:54;10.03;;;7.60;;
55134;SDS011;41031;44.750;11.308;2023-04-08T11:09:21;10.53;;;8.93;;
55134;SDS011;41031;44.750;11.308;2023-04-08T11:11:48;12.40;;;9.00;;
55134;SDS011;41031;44.750;11.308;2023-04-08T11:14:15;8.47;;;7.57;;
55134;SDS011;41031;44.750;11.308;2023-04-08T11:16:47;10.93;;;8.10;;
55134;SDS011;41031;44.750;11.308;2023-04-08T11:19:14;11.87;;;7.80;;
55134;SDS011;41031;44.750;11.308;2023-04-08T11:21:41;6.90;;;6.10;;
55134;SDS011;41031;44.750;11.308;2023-04-08T11:24:08;7.50;;;6.17;;
55134;SDS011;41031;44.750;11.308;2023-04-08T11:26:37;7.07;;;6.37;;
55134;SDS011;41031;44.750;11.308;2023-04-08T11:29:05;7.17;;;6.13;;
55134;SDS011;41031;44.750;11.308;2023-04-08T11:31:38;7.93;;;5.90;;
55134;SDS011;41031;44.750;11.308;2023-04-08T11:34:06;7.23;;;5.97;;
55134;SDS011;41031;44.750;11.308;2023-04-08T11:36:33;7.67;;;6.07;;
55134;SDS011;41031;44.750;11.308;2023-04-08T11:39:08;7.93;;;6.53;;
55134;SDS011;41031;44.750;11.308;2023-04-08T11:41:37;7.90;;;7.07;;
55134;SDS011;41031;44.750;11.308;2023-04-08T11:44:05;9.67;;;7.23;;
55134;SDS011;41031;44.750;11.308;2023-04-08T11:46:33;8.83;;;7.13;;
55134;SDS011;41031;44.750;11.308;2023-04-08T11:49:02;7.20;;;6.07;;
55134;SDS011;41031;44.750;11.308;2023-04-08T11:51:32;6.97;;;6.23;;
55134;SDS011;41031;44.750;11.308;2023-04-08T11:54:03;7.43;;;6.53;;
55134;SDS011;41031;44.750;11.308;2023-04-08T11:56:42;6.53;;;6.00;;
55134;SDS011;41031;44.750;11.308;2023-04-08T11:59:11;5.40;;;4.90;;
55134;SDS011;41031;44.750;11.308;2023-04-08T12:01:38;3.60;;;3.30;;
55134;SDS011;41031;44.750;11.308;2023-04-08T12:04:05;7.80;;;3.60;;
55134;SDS011;41031;44.750;11.308;2023-04-08T12:06:35;5.23;;;3.87;;
55134;SDS011;41031;44.750;11.308;2023-04-08T12:09:02;7.03;;;4.23;;
55134;SDS011;41031;44.750;11.308;2023-04-08T12:11:29;7.00;;;4.80;;
55134;SDS011;41031;44.750;11.308;2023-04-08T12:13:56;6.27;;;4.77;;
55134;SDS011;41031;44.750;11.308;2023-04-08T12:16:24;5.73;;;4.70;;
55134;SDS011;41031;44.750;11.308;2023-04-08T12:18:51;5.33;;;4.77;;
55134;SDS011;41031;44.750;11.308;2023-04-08T12:21:18;6.63;;;4.63;;
55134;SDS011;41031;44.750;11.308;2023-04-08T12:23:45;4.73;;;4.07;;
55134;SDS011;41031;44.750;11.308;2023-04-08T12:26:12;5.90;;;4.27;;
55134;SDS011;41031;44.750;11.308;2023-04-08T12:28:39;3.53;;;3.23;;
55134;SDS011;41031;44.750;11.308;2023-04-08T12:31:06;3.70;;;3.37;;
55134;SDS011;41031;44.750;11.308;2023-04-08T12:33:34;3.73;;;3.40;;
55134;SDS011;41031;44.750;11.308;2023-04-08T12:36:01;4.60;;;3.40;;
55134;SDS011;41031;44.750;11.308;2023-04-08T12:38:28;3.87;;;3.50;;
55134;SDS011;41031;44.750;11.308;2023-04-08T12:40:55;6.23;;;4.40;;
55134;SDS011;41031;44.750;11.308;2023-04-08T12:43:22;4.77;;;4.20;;
55134;SDS011;41031;44.750;11.308;2023-04-08T12:45:49;6.63;;;4.40;;
55134;SDS011;41031;44.750;11.308;2023-04-08T12:48:17;6.17;;;4.10;;
55134;SDS011;41031;44.750;11.308;2023-04-08T12:50:44;6.00;;;4.00;;
55134;SDS011;41031;44.750;11.308;2023-04-08T12:53:11;10.00;;;4.93;;
55134;SDS011;41031;44.750;11.308;2023-04-08T12:55:38;6.53;;;5.80;;
55134;SDS011;41031;44.750;11.308;2023-04-08T12:58:05;6.73;;;5.00;;
55134;SDS011;41031;44.750;11.308;2023-04-08T13:00:32;20.57;;;5.23;;
55134;SDS011;41031;44.750;11.308;2023-04-08T13:03:03;9.50;;;4.20;;
55134;SDS011;41031;44.750;11.308;2023-04-08T13:05:31;7.87;;;4.83;;
55134;SDS011;41031;44.750;11.308;2023-04-08T13:08:05;9.80;;;5.43;;
55134;SDS011;41031;44.750;11.308;2023-04-08T13:10:32;6.17;;;4.10;;
55134;SDS011;41031;44.750;11.308;2023-04-08T13:12:59;3.73;;;2.83;;
55134;SDS011;41031;44.750;11.308;2023-04-08T13:15:26;3.53;;;2.60;;
55134;SDS011;41031;44.750;11.308;2023-04-08T13:17:53;2.53;;;2.33;;
55134;SDS011;41031;44.750;11.308;2023-04-08T13:20:21;3.00;;;2.03;;
55134;SDS011;41031;44.750;11.308;2023-04-08T13:22:51;2.40;;;2.17;;
55134;SDS011;41031;44.750;11.308;2023-04-08T13:25:19;2.70;;;1.87;;
55134;SDS011;41031;44.750;11.308;2023-04-08T13:27:46;3.93;;;2.60;;
55134;SDS011;41031;44.750;11.308;2023-04-08T13:30:13;7.73;;;3.00;;
55134;SDS011;41031;44.750;11.308;2023-04-08T13:32:40;4.77;;;3.70;;
55134;SDS011;41031;44.750;11.308;2023-04-08T13:35:07;5.10;;;3.43;;
55134;SDS011;41031;44.750;11.308;2023-04-08T13:37:34;6.40;;;3.83;;
55134;SDS011;41031;44.750;11.308;2023-04-08T13:40:01;5.43;;;3.80;;
55134;SDS011;41031;44.750;11.308;2023-04-08T13:42:29;5.83;;;3.83;;
55134;SDS011;41031;44.750;11.308;2023-04-08T13:44:59;8.10;;;5.33;;
55134;SDS011;41031;44.750;11.308;2023-04-08T13:47:26;7.43;;;5.50;;
55134;SDS011;41031;44.750;11.308;2023-04-08T13:49:53;6.80;;;4.60;;
55134;SDS011;41031;44.750;11.308;2023-04-08T13:52:20;7.80;;;6.17;;
55134;SDS011;41031;44.750;11.308;2023-04-08T13:54:48;8.73;;;5.93;;
55134;SDS011;41031;44.750;11.308;2023-04-08T13:57:14;5.80;;;5.20;;
55134;SDS011;41031;44.750;11.308;2023-04-08T13:59:41;5.70;;;5.00;;
55134;SDS011;41031;44.750;11.308;2023-04-08T14:02:10;6.00;;;5.07;;
55134;SDS011;41031;44.750;11.308;2023-04-08T14:04:38;7.07;;;5.67;;
55134;SDS011;41031;44.750;11.308;2023-04-08T14:07:05;6.77;;;5.87;;
55134;SDS011;41031;44.750;11.308;2023-04-08T14:09:32;8.53;;;5.57;;
55134;SDS011;41031;44.750;11.308;2023-04-08T14:12:01;8.87;;;5.80;;
55134;SDS011;41031;44.750;11.308;2023-04-08T14:14:28;7.33;;;6.33;;
55134;SDS011;41031;44.750;11.308;2023-04-08T14:16:55;7.23;;;6.07;;
55134;SDS011;41031;44.750;11.308;2023-04-08T14:19:23;13.17;;;8.13;;
55134;SDS011;41031;44.750;11.308;2023-04-08T14:21:50;8.97;;;5.70;;
55134;SDS011;41031;44.750;11.308;2023-04-08T14:24:17;7.40;;;5.33;;
55134;SDS011;41031;44.750;11.308;2023-04-08T14:26:44;7.20;;;5.30;;
55134;SDS011;41031;44.750;11.308;2023-04-08T14:29:11;9.97;;;6.67;;
55134;SDS011;41031;44.750;11.308;2023-04-08T14:31:38;6.80;;;5.83;;
55134;SDS011;41031;44.750;11.308;2023-04-08T14:34:05;8.43;;;5.10;;
55134;SDS011;41031;44.750;11.308;2023-04-08T14:36:32;7.20;;;6.00;;
55134;SDS011;41031;44.750;11.308;2023-04-08T14:38:59;7.03;;;5.70;;
55134;SDS011;41031;44.750;11.308;2023-04-08T14:41:26;6.60;;;5.40;;
55134;SDS011;41031;44.750;11.308;2023-04-08T14:43:53;6.80;;;5.80;;
55134;SDS011;41031;44.750;11.308;2023-04-08T14:46:20;7.20;;;6.50;;
55134;SDS011;41031;44.750;11.308;2023-04-08T14:48:48;13.53;;;7.80;;